createdAt,value
2019-03-09T00:00:28.026Z,99.90
2019-03-09T00:05:44.455Z,99.90
2019-03-09T00:11:01.452Z,99.90
2019-03-09T00:16:18.106Z,99.90
2019-03-09T00:21:35.188Z,99.90
2019-03-09T00:27:10.904Z,99.90
2019-03-09T00:32:47.899Z,99.90
2019-03-09T00:38:05.011Z,99.90
2019-03-09T00:43:21.915Z,99.90
2019-03-09T00:48:38.810Z,99.90
2019-03-09T00:53:55.732Z,99.90
2019-03-09T00:59:12.154Z,99.90
2019-03-09T01:04:29.118Z,99.90
2019-03-09T01:09:45.858Z,99.90
2019-03-09T01:15:02.807Z,99.90
2019-03-09T01:20:19.499Z,99.90
2019-03-09T01:25:36.400Z,99.90
2019-03-09T01:30:53.318Z,99.90
2019-03-09T01:36:10.214Z,99.90
2019-03-09T01:41:27.235Z,99.80
2019-03-09T01:46:44.265Z,99.70
2019-03-09T01:52:01.061Z,99.60
2019-03-09T01:57:17.826Z,99.60
2019-03-09T02:02:35.162Z,99.60
2019-03-09T02:07:52.210Z,99.50
2019-03-09T02:13:09.054Z,99.50
2019-03-09T02:18:26.091Z,99.50
2019-03-09T02:23:43.071Z,99.90
2019-03-09T02:29:01.089Z,99.50
2019-03-09T02:34:18.327Z,99.50
2019-03-09T02:45:15.821Z,99.40
2019-03-09T02:50:33.119Z,99.30
2019-03-09T02:55:50.515Z,99.20
2019-03-09T03:01:26.085Z,99.10
2019-03-09T03:06:43.185Z,99.10
2019-03-09T03:12:00.298Z,99.00
2019-03-09T03:17:17.453Z,99.10
2019-03-09T03:22:34.319Z,99.10
2019-03-09T03:27:51.538Z,99.00
2019-03-09T03:33:08.573Z,99.00
2019-03-09T03:38:25.603Z,98.80
2019-03-09T03:43:42.393Z,98.80
2019-03-09T03:48:59.221Z,98.70
2019-03-09T03:54:15.940Z,98.70
2019-03-09T03:59:33.153Z,98.60
2019-03-09T04:04:49.935Z,98.60
2019-03-09T04:10:06.484Z,98.50
2019-03-09T04:15:23.519Z,98.40
2019-03-09T04:20:40.181Z,98.30
2019-03-09T04:25:57.187Z,98.20
2019-03-09T04:31:13.958Z,98.20
2019-03-09T04:36:30.963Z,98.00
2019-03-09T04:41:47.655Z,97.90
2019-03-09T04:47:04.764Z,97.80
2019-03-09T04:52:21.484Z,97.80
2019-03-09T04:57:38.272Z,97.70
2019-03-09T05:02:55.074Z,97.70
2019-03-09T05:08:12.099Z,97.50
2019-03-09T05:13:28.819Z,97.40
2019-03-09T05:18:45.708Z,97.40
2019-03-09T05:24:02.662Z,97.30
2019-03-09T05:29:19.125Z,97.00
2019-03-09T05:34:35.812Z,96.90
2019-03-09T05:39:52.832Z,96.80
2019-03-09T05:45:09.956Z,96.50
2019-03-09T05:50:26.764Z,96.50
2019-03-09T05:55:43.471Z,96.50
2019-03-09T06:01:00.452Z,96.50
2019-03-09T06:06:17.371Z,96.50
2019-03-09T06:11:33.735Z,96.30
2019-03-09T06:16:50.730Z,96.30
2019-03-09T06:22:07.413Z,96.00
2019-03-09T06:27:25.546Z,95.90
2019-03-09T06:32:42.045Z,95.90
2019-03-09T06:37:58.937Z,95.60
2019-03-09T06:43:16.114Z,95.60
2019-03-09T06:48:33.227Z,95.60
2019-03-09T06:53:49.697Z,95.60
2019-03-09T06:59:06.869Z,95.70
2019-03-09T07:04:23.837Z,95.80
2019-03-09T07:09:40.572Z,96.00
2019-03-09T07:14:57.610Z,95.90
2019-03-09T07:20:14.334Z,96.00
2019-03-09T07:25:31.241Z,96.00
2019-03-09T07:30:48.180Z,96.00
2019-03-09T07:36:05.029Z,95.80
2019-03-09T07:41:22.218Z,95.80
2019-03-09T07:46:39.356Z,96.20
2019-03-09T07:51:56.472Z,96.10
2019-03-09T07:57:13.441Z,95.60
2019-03-09T08:02:30.452Z,95.60
2019-03-09T08:07:47.481Z,95.50
2019-03-09T08:13:04.424Z,95.50
2019-03-09T08:18:21.016Z,95.60
2019-03-09T08:23:38.077Z,95.60
2019-03-09T08:28:55.367Z,95.60
2019-03-09T08:34:12.057Z,95.60
2019-03-09T08:39:29.078Z,95.80
2019-03-09T08:44:48.755Z,95.50
2019-03-09T08:50:05.228Z,95.40
2019-03-09T08:55:21.984Z,95.10
2019-03-09T09:00:38.713Z,94.70
2019-03-09T09:05:55.253Z,94.10
2019-03-09T09:11:11.894Z,93.70
2019-03-09T09:16:28.540Z,93.20
2019-03-09T09:21:45.358Z,93.10
2019-03-09T09:27:01.913Z,92.80
2019-03-09T09:32:18.728Z,92.50
2019-03-09T09:37:35.272Z,92.50
2019-03-09T09:42:52.222Z,92.10
2019-03-09T09:48:09.190Z,92.30
2019-03-09T09:53:26.004Z,92.10
2019-03-09T09:58:43.000Z,92.20
2019-03-09T10:04:00.006Z,92.20
2019-03-09T10:09:17.126Z,92.30
2019-03-09T10:14:34.066Z,92.10
2019-03-09T10:19:51.110Z,91.80
2019-03-09T10:25:08.070Z,91.50
2019-03-09T10:30:24.379Z,91.70
2019-03-09T10:35:40.758Z,91.40
2019-03-09T10:40:58.026Z,91.40
2019-03-09T10:46:15.276Z,91.30
2019-03-09T10:51:32.249Z,91.20
2019-03-09T10:56:49.272Z,91.00
2019-03-09T11:02:05.837Z,90.30
2019-03-09T11:07:22.355Z,89.70
2019-03-09T11:12:39.169Z,88.60
2019-03-09T11:17:55.909Z,88.50
2019-03-09T11:23:12.614Z,88.30
2019-03-09T11:28:29.165Z,85.70
2019-03-09T11:33:45.774Z,86.70
2019-03-09T11:39:02.966Z,84.50
2019-03-09T11:44:20.187Z,82.10
2019-03-09T11:49:36.978Z,81.30
2019-03-09T11:54:53.420Z,79.00
2019-03-09T12:00:10.403Z,76.30
2019-03-09T12:05:27.403Z,75.50
2019-03-09T12:10:44.164Z,75.90
2019-03-09T12:16:01.207Z,72.70
2019-03-09T12:21:18.377Z,70.90
2019-03-09T12:26:35.571Z,68.50
2019-03-09T12:31:51.966Z,69.10
2019-03-09T12:37:08.781Z,67.60
2019-03-09T12:42:25.560Z,67.10
2019-03-09T12:47:42.124Z,67.80
2019-03-09T12:52:58.703Z,67.90
2019-03-09T12:58:15.374Z,68.00
2019-03-09T13:03:32.709Z,68.60
2019-03-09T13:08:50.013Z,67.30
2019-03-09T13:14:07.074Z,67.70
2019-03-09T13:19:24.158Z,67.60
2019-03-09T13:24:41.019Z,67.30
2019-03-09T13:29:57.890Z,65.80
2019-03-09T13:35:15.052Z,66.70
2019-03-09T13:40:31.893Z,67.40
2019-03-09T13:45:48.751Z,67.10
2019-03-09T13:51:05.610Z,64.00
2019-03-09T13:56:22.412Z,63.10
2019-03-09T14:01:39.072Z,63.30
2019-03-09T14:06:56.116Z,59.80
2019-03-09T14:12:13.467Z,60.90
2019-03-09T14:17:30.746Z,58.70
2019-03-09T14:22:47.391Z,59.30
2019-03-09T14:28:03.924Z,59.00
2019-03-09T14:33:21.188Z,57.80
2019-03-09T14:38:38.025Z,59.00
2019-03-09T14:43:54.928Z,58.90
2019-03-09T14:49:12.122Z,58.10
2019-03-09T14:54:29.125Z,58.40
2019-03-09T14:59:45.829Z,58.60
2019-03-09T15:05:03.580Z,59.60
2019-03-09T15:10:20.820Z,60.10
2019-03-09T15:15:37.839Z,59.20
2019-03-09T15:20:55.002Z,59.50
2019-03-09T15:26:11.649Z,58.30
2019-03-09T15:31:28.771Z,57.90
2019-03-09T15:36:45.072Z,57.10
2019-03-09T15:42:02.008Z,57.60
2019-03-09T15:47:19.031Z,57.30
2019-03-09T15:52:35.788Z,58.00
2019-03-09T15:57:52.135Z,58.00
2019-03-09T16:03:09.093Z,57.10
2019-03-09T16:08:25.602Z,56.70
2019-03-09T16:13:42.135Z,56.80
2019-03-09T16:18:59.267Z,57.50
2019-03-09T16:24:16.418Z,57.60
2019-03-09T16:29:33.136Z,58.20
2019-03-09T16:34:50.286Z,58.10
2019-03-09T16:40:06.895Z,59.50
2019-03-09T16:45:23.779Z,59.40
2019-03-09T16:50:40.758Z,61.20
2019-03-09T16:55:57.584Z,63.10
2019-03-09T17:01:14.897Z,63.80
2019-03-09T17:06:31.470Z,64.40
2019-03-09T17:11:48.452Z,64.10
2019-03-09T17:17:05.300Z,63.70
2019-03-09T17:22:32.434Z,64.40
2019-03-09T17:27:41.468Z,64.60
2019-03-09T17:32:58.443Z,64.10
2019-03-09T17:38:15.515Z,64.80
2019-03-09T17:43:32.314Z,64.30
2019-03-09T17:48:49.328Z,64.10
2019-03-09T17:54:06.037Z,63.00
2019-03-09T17:59:22.786Z,63.20
2019-03-09T18:04:39.582Z,64.00
2019-03-09T18:09:56.456Z,64.50
2019-03-09T18:15:13.294Z,65.60
2019-03-09T18:20:30.429Z,66.50
2019-03-09T18:25:47.166Z,67.10
2019-03-09T18:31:04.009Z,67.50
2019-03-09T18:36:20.484Z,67.70
2019-03-09T18:41:37.130Z,67.50
2019-03-09T18:46:54.298Z,67.70
2019-03-09T18:52:11.143Z,67.80
2019-03-09T18:57:27.864Z,67.70
2019-03-09T19:02:45.015Z,67.70
2019-03-09T19:08:01.438Z,67.40
2019-03-09T19:13:19.033Z,67.40
2019-03-09T19:18:36.195Z,65.90
2019-03-09T19:23:53.224Z,66.30
2019-03-09T19:29:10.321Z,66.20
2019-03-09T19:34:27.281Z,66.20
2019-03-09T19:39:45.043Z,66.00
2019-03-09T19:45:01.654Z,66.60
2019-03-09T19:50:18.623Z,67.20
2019-03-09T19:55:35.493Z,67.70
2019-03-09T20:00:52.269Z,68.10
2019-03-09T20:06:09.268Z,68.50
2019-03-09T20:11:26.027Z,69.00
2019-03-09T20:16:43.154Z,69.60
2019-03-09T20:22:00.233Z,69.80
2019-03-09T20:27:17.131Z,70.10
2019-03-09T20:32:36.414Z,70.50
2019-03-09T20:37:52.786Z,70.70
2019-03-09T20:43:09.568Z,71.00
2019-03-09T20:48:25.909Z,70.90
2019-03-09T20:53:42.665Z,71.10
2019-03-09T20:58:59.655Z,71.40
2019-03-09T21:04:16.845Z,71.60
2019-03-09T21:09:33.531Z,71.70
2019-03-09T21:14:50.598Z,71.90
2019-03-09T21:20:07.406Z,72.10
2019-03-09T21:25:24.512Z,72.40
2019-03-09T21:30:41.530Z,72.50
2019-03-09T21:35:58.720Z,72.70
2019-03-09T21:41:15.525Z,73.10
2019-03-09T21:46:32.207Z,73.40
2019-03-09T21:51:49.269Z,73.60
2019-03-09T21:57:06.508Z,74.10
2019-03-09T22:02:23.698Z,74.30
2019-03-09T22:07:40.931Z,74.30
2019-03-09T22:12:57.897Z,74.40
2019-03-09T22:18:14.529Z,74.80
2019-03-09T22:23:31.586Z,76.30
2019-03-09T22:28:48.219Z,78.20
2019-03-09T22:34:04.861Z,80.40
2019-03-09T22:39:22.185Z,81.90
2019-03-09T22:44:39.134Z,82.00
2019-03-09T22:49:56.082Z,84.30
2019-03-09T22:55:13.119Z,86.40
2019-03-09T23:00:30.466Z,87.20
2019-03-09T23:05:47.065Z,86.50
2019-03-09T23:11:03.785Z,87.50
2019-03-09T23:16:20.664Z,88.10
2019-03-09T23:21:37.587Z,88.70
2019-03-09T23:26:54.993Z,89.60
2019-03-09T23:32:11.711Z,90.10
2019-03-09T23:37:28.426Z,90.80
2019-03-09T23:42:45.720Z,90.70
2019-03-09T23:48:02.802Z,90.60
2019-03-09T23:53:19.730Z,90.70
2019-03-09T23:58:37.120Z,90.90
